createdAt,value
2019-03-31T00:01:12.165Z,20.3
2019-03-31T00:12:34.844Z,32.5
2019-03-31T00:23:19.977Z,27.1
2019-03-31T00:35:04.772Z,29.8
2019-03-31T00:47:13.576Z,25.8
2019-03-31T00:57:58.669Z,26.0
2019-03-31T01:08:45.757Z,24.7
2019-03-31T01:19:31.088Z,26.9
2019-03-31T01:32:03.464Z,30.7
2019-03-31T01:42:17.496Z,18.1
2019-03-31T01:53:03.357Z,21.2
2019-03-31T02:06:38.583Z,25.8
2019-03-31T02:16:50.842Z,15.9
2019-03-31T02:27:37.187Z,20.0
2019-03-31T02:37:51.457Z,17.9
2019-03-31T02:49:54.168Z,19.2
2019-03-31T03:00:39.173Z,19.5
2019-03-31T03:10:53.309Z,14.1
2019-03-31T03:22:27.647Z,23.1
2019-03-31T03:34:36.919Z,24.2
2019-03-31T03:44:50.996Z,18.7
2019-03-31T03:55:36.894Z,17.6
2019-03-31T04:06:22.415Z,17.4
2019-03-31T04:17:08.408Z,21.7
2019-03-31T04:28:32.360Z,19.7
2019-03-31T04:39:21.486Z,13.9
2019-03-31T04:50:48.014Z,16.6
2019-03-31T05:02:08.186Z,14.6
2019-03-31T05:12:55.439Z,14.2
2019-03-31T05:24:30.114Z,12.0
2019-03-31T05:34:44.646Z,8.6
2019-03-31T05:45:30.323Z,10.8
2019-03-31T05:56:16.034Z,11.4
2019-03-31T06:09:05.084Z,9.7
2019-03-31T06:22:19.400Z,8.9
2019-03-31T06:33:08.104Z,9.7
2019-03-31T06:43:22.307Z,9.2
2019-03-31T06:54:07.976Z,7.8
2019-03-31T07:04:22.594Z,7.1
2019-03-31T07:14:34.470Z,4.3
2019-03-31T07:25:16.153Z,4.9
2019-03-31T07:36:37.755Z,6.4
2019-03-31T07:48:22.827Z,6.4
2019-03-31T07:58:36.941Z,3.9
2019-03-31T08:09:22.677Z,4.4
2019-03-31T08:20:11.532Z,8.8
2019-03-31T08:30:57.429Z,6.1
2019-03-31T08:42:20.561Z,4.7
2019-03-31T08:53:06.734Z,4.3
2019-03-31T09:03:23.607Z,1.9
2019-03-31T09:14:46.186Z,3.1
2019-03-31T09:25:31.865Z,4.0
2019-03-31T09:37:00.918Z,2.0
2019-03-31T09:51:32.062Z,4.2
2019-03-31T10:15:35.512Z,1.1
2019-03-31T10:27:35.077Z,1.6
2019-03-31T10:40:14.743Z,3.5
2019-03-31T12:34:33.232Z,2.4
2019-03-31T13:23:56.118Z,1.3
2019-03-31T13:34:41.606Z,1.0
2019-03-31T13:48:01.375Z,1.2
2019-03-31T14:00:06.076Z,1.8
2019-03-31T14:10:23.789Z,1.4
2019-03-31T14:21:10.343Z,1.4
2019-03-31T14:33:08.779Z,1.4
2019-03-31T14:43:20.930Z,1.3
2019-03-31T14:54:08.661Z,2.2
2019-03-31T15:04:20.866Z,1.4
2019-03-31T15:15:06.395Z,1.5
2019-03-31T15:27:12.653Z,2.8
2019-03-31T15:38:35.349Z,1.4
2019-03-31T15:48:49.508Z,1.7
2019-03-31T15:59:34.571Z,1.1
2019-03-31T16:09:48.666Z,1.5
2019-03-31T16:24:33.776Z,1.9
2019-03-31T16:34:48.519Z,0.9
2019-03-31T16:46:09.207Z,1.4
2019-03-31T17:18:04.265Z,2.9
2019-03-31T17:51:31.847Z,1.9
2019-03-31T18:03:16.322Z,1.2
2019-03-31T18:14:10.173Z,1.4
2019-03-31T18:26:31.096Z,1.6
2019-03-31T18:38:41.711Z,1.7
2019-03-31T18:49:30.138Z,1.3
2019-03-31T19:00:35.248Z,1.0
2019-03-31T19:13:55.344Z,1.6
2019-03-31T19:24:04.252Z,1.1
2019-03-31T19:34:14.255Z,1.7
2019-03-31T19:44:59.982Z,1.0
2019-03-31T19:59:56.569Z,0.9
2019-03-31T20:11:26.367Z,1.3
2019-03-31T20:22:55.506Z,1.8
2019-03-31T20:36:18.984Z,1.3
2019-03-31T20:47:46.597Z,0.9
2019-03-31T20:58:32.977Z,1.3
2019-03-31T21:09:24.772Z,1.1
2019-03-31T21:19:36.639Z,1.6
2019-03-31T21:30:34.142Z,1.2
2019-03-31T21:40:47.778Z,0.7
2019-03-31T21:51:38.672Z,0.8
2019-03-31T22:04:14.732Z,1.2
2019-03-31T22:14:27.096Z,1.0
2019-03-31T22:25:30.373Z,1.5
2019-03-31T22:35:49.542Z,2.0
2019-03-31T22:46:03.206Z,0.9
2019-03-31T22:57:10.901Z,1.1
2019-03-31T23:07:25.775Z,0.6
2019-03-31T23:17:41.087Z,0.9
2019-03-31T23:27:54.584Z,1.1
2019-03-31T23:38:08.754Z,1.3
2019-03-31T23:48:23.047Z,0.6
2019-03-31T23:58:37.317Z,1.2
